ADDS METAR Data INFO
IDs: Format: Raw Decoded Include TAF

Data at: 1359 UTC 17 Dec 2017

KIJX 171335Z AUTO 19007KT 10SM SCT065 BKN080 OVC090 06/M02 A3004 RMK AO2 T00611018
KIJX 171315Z AUTO 19007KT 10SM OVC100 06/M02 A3002 RMK AO2 T00601020
KIJX 171255Z AUTO 17007KT 10SM OVC100 06/M02 A3002 RMK AO2 T00601020
KIJX 171235Z AUTO 18006KT 10SM OVC110 06/M02 A3002 RMK AO2 T00601020
KIJX 171215Z AUTO 17008KT 10SM BKN120 06/M02 A3003 RMK AO2 T00611021
KIJX 171155Z AUTO 18007KT 10SM SCT120 06/M02 A3004 RMK AO2 T00601022 10061 20051
KIJX 171135Z AUTO 17007KT 10SM CLR 06/M02 A3004 RMK AO2 T00601023
KIJX 171115Z AUTO 17006KT 10SM CLR 06/M02 A3004 RMK AO2 T00591023
KIJX 171055Z AUTO 17007KT 10SM CLR 06/M02 A3004 RMK AO2 T00601024
KIJX 171035Z AUTO 17007KT 10SM CLR 06/M02 A3005 RMK AO2 T00581025
KIJX 171015Z AUTO 18007KT 10SM CLR 06/M02 A3005 RMK AO2 T00581025
KIJX 170955Z AUTO 19007KT 10SM CLR 06/M02 A3006 RMK AO2 T00611025
KIJX 170935Z AUTO 19009KT 10SM CLR 06/M02 A3006 RMK AO2 T00581025
KIJX 170915Z AUTO 19006KT 10SM CLR 06/M02 A3005 RMK AO2 T00561025
KIJX 170855Z AUTO 18007KT 10SM CLR 06/M02 A3005 RMK AO2 T00571025
KIJX 170835Z AUTO 17007KT 10SM CLR 06/M02 A3003 RMK AO2 T00551025
KIJX 170815Z AUTO 17006KT 10SM CLR 06/M02 A3003 RMK AO2 T00571025
KIJX 170755Z AUTO 17007KT 10SM CLR 06/M02 A3004 RMK AO2 T00571025
KIJX 170735Z AUTO 17006KT 10SM CLR 06/M03 A3004 RMK AO2 T00571026
KIJX 170715Z AUTO 17007KT 10SM CLR 06/M03 A3004 RMK AO2 T00561028
KIJX 170655Z AUTO 17006KT 10SM CLR 06/M03 A3004 RMK AO2 T00571030
KIJX 170635Z AUTO 17006KT 10SM CLR 06/M03 A3003 RMK AO2 T00571032
KIJX 170615Z AUTO 16005KT 10SM CLR 06/M03 A3003 RMK AO2 T00561033
KIJX 170555Z AUTO 17006KT 10SM CLR 06/M03 A3003 RMK AO2 T00601035 10091 20056 401441005
KIJX 170535Z AUTO 17005KT 10SM CLR 06/M03 A3003 RMK AO2 T00591035
KIJX 170515Z AUTO 17006KT 10SM CLR 06/M03 A3004 RMK AO2 T00621035
KIJX 170455Z AUTO 17005KT 10SM CLR 07/M03 A3004 RMK AO2 T00731035
KIJX 170435Z AUTO 19006KT 10SM CLR 08/M03 A3004 RMK AO2 T00781035
KIJX 170415Z AUTO 20006KT 10SM CLR 07/M04 A3002 RMK AO2 T00691036
KIJX 170355Z AUTO 20005KT 10SM CLR 08/M03 A3002 RMK AO2 T00751035
KIJX 170335Z AUTO 20008KT 10SM CLR 08/M03 A3002 RMK AO2 T00761034
KIJX 170315Z AUTO 20008KT 10SM CLR 08/M03 A3002 RMK AO2 T00761035
KIJX 170255Z AUTO 20006KT 10SM CLR 08/M04 A3002 RMK AO2 T00751036
KIJX 170235Z AUTO 20007KT 10SM CLR 08/M04 A3002 RMK AO2 T00791036
KIJX 170215Z AUTO 20007KT 10SM CLR 08/M04 A3002 RMK AO2 T00771037
KIJX 170155Z AUTO 17005KT 10SM CLR 08/M04 A3001 RMK AO2 T00801038
KIJX 170135Z AUTO 18004KT 10SM CLR 08/M04 A3000 RMK AO2 T00781038
KIJX 170115Z AUTO 18005KT 10SM CLR 08/M04 A3001 RMK AO2 T00791037
KIJX 170055Z AUTO 17004KT 10SM CLR 08/M04 A2999 RMK AO2 T00781036
KIJX 170035Z AUTO 17003KT 10SM CLR 08/M03 A2999 RMK AO2 T00811035
KIJX 170015Z AUTO 00000KT 10SM CLR 09/M03 A2998 RMK AO2 T00911034
KIJX 162355Z AUTO 00000KT 10SM CLR 08/M03 A2997 RMK AO2 T00841035 10144 20083
KIJX 162335Z AUTO 18004KT 10SM CLR 10/M03 A2997 RMK AO2 T00991032
KIJX 162315Z AUTO 21003KT 10SM CLR 09/M03 A2995 RMK AO2 T00911035
KIJX 162255Z AUTO 19003KT 10SM CLR 10/M04 A2995 RMK AO2 T00991036
KIJX 162235Z AUTO 21004KT 10SM CLR 11/M03 A2993 RMK AO2 T01141034
KIJX 162215Z AUTO 22006KT 10SM CLR 13/M03 A2993 RMK AO2 T01281031
KIJX 162155Z AUTO 22007KT 10SM CLR 14/M03 A2993 RMK AO2 T01361030
KIJX 162135Z AUTO 22008KT 10SM CLR 14/M03 A2993 RMK AO2 T01401030
KIJX 162115Z AUTO 22011KT 10SM CLR 14/M03 A2992 RMK AO2 T01421031
KIJX 162055Z AUTO 23013G20KT 10SM CLR 14/M03 A2991 RMK AO2 T01431031
KIJX 162035Z AUTO 22013G21KT 10SM CLR 14/M03 A2991 RMK AO2 T01431031
KIJX 162015Z AUTO 22013G16KT 10SM CLR 14/M03 A2990 RMK AO2 T01411031
KIJX 161955Z AUTO 23014G20KT 10SM CLR 14/M03 A2990 RMK AO2 T01381031
KIJX 161935Z AUTO 22010G19KT 10SM CLR 14/M03 A2990 RMK AO2 T01361030
KIJX 161915Z AUTO 20011KT 10SM CLR 13/M03 A2990 RMK AO2 T01311027
KIJX 161855Z AUTO 21011G18KT 10SM CLR 13/M03 A2991 RMK AO2 T01251028
KIJX 161835Z AUTO 22011KT 10SM CLR 12/M03 A2991 RMK AO2 T01211029
KIJX 161815Z AUTO 21012KT 10SM CLR 11/M03 A2992 RMK AO2 T01111030
KIJX 161755Z AUTO 22014G18KT 10SM CLR 11/M03 A2992 RMK AO2 T01061030 10106 20012
KIJX 161735Z AUTO 23013KT 10SM CLR 10/M03 A2993 RMK AO2 T01001031
KIJX 161715Z AUTO 23015G20KT 10SM CLR 09/M03 A2993 RMK AO2 T00931032
KIJX 161655Z AUTO 22017G20KT 10SM CLR 09/M03 A2993 RMK AO2 T00881033
KIJX 161635Z AUTO 22018G24KT 10SM CLR 08/M04 A2994 RMK AO2 T00801036
KIJX 161615Z AUTO 21016G22KT 10SM CLR 07/M04 A2994 RMK AO2 T00731036
KIJX 161555Z AUTO 22019G25KT 10SM CLR 07/M04 A2993 RMK AO2 T00651036
KIJX 161535Z AUTO 21017G23KT 10SM CLR 06/M04 A2993 RMK AO2 T00551038
KIJX 161515Z AUTO 21018G23KT 10SM CLR 05/M04 A2993 RMK AO2 T00471038
KIJX 161455Z AUTO 20015G20KT 10SM CLR 04/M04 A2992 RMK AO2 T00391040
KIJX 161435Z AUTO 20013G17KT 10SM CLR 03/M04 A2992 RMK AO2 T00301042
KIJX 161415Z AUTO 20011KT 10SM CLR 02/M04 A2992 RMK AO2 T00221043
KIJX 161355Z AUTO 20012G16KT 10SM CLR 02/M04 A2991 RMK AO2 T00181045
KIJX 161335Z AUTO 20012G19KT 10SM CLR 02/M05 A2991 RMK AO2 T00151046
KIJX 161315Z AUTO 20012KT 10SM CLR 01/M05 A2991 RMK AO2 T00141046
KIJX 161255Z AUTO 20012KT 10SM CLR 02/M05 A2991 RMK AO2 T00151046
KIJX 161235Z AUTO 20014KT 10SM CLR 02/M05 A2991 RMK AO2 T00151046
KIJX 161215Z AUTO 20013KT 10SM CLR 01/M04 A2991 RMK AO2 T00121045
KIJX 161155Z AUTO 20014G17KT 10SM CLR 01/M04 A2990 RMK AO2 T00121045 10012 21005
KIJX 161135Z AUTO 20012KT 10SM CLR 01/M04 A2990 RMK AO2 T00111045
KIJX 161115Z AUTO 20012KT 10SM CLR 01/M05 A2990 RMK AO2 T00091046
KIJX 161055Z AUTO 20011KT 10SM CLR 01/M04 A2991 RMK AO2 T00091045
KIJX 161035Z AUTO 20011KT 10SM CLR 01/M04 A2991 RMK AO2 T00081045
KIJX 161015Z AUTO 20013KT 10SM CLR 01/M04 A2991 RMK AO2 T00101045
KIJX 160955Z AUTO 20012KT 10SM CLR 01/M04 A2992 RMK AO2 T00071045
KIJX 160935Z AUTO 20012KT 10SM CLR 01/M04 A2993 RMK AO2 T00081045
KIJX 160915Z AUTO 20012KT 10SM CLR 01/M04 A2993 RMK AO2 T00071045
KIJX 160855Z AUTO 20011KT 10SM CLR 01/M05 A2994 RMK AO2 T00091046
KIJX 160835Z AUTO 19013G17KT 10SM CLR 01/M05 A2994 RMK AO2 T00051046
KIJX 160815Z AUTO 19013KT 10SM CLR 01/M05 A2994 RMK AO2 T00051046
KIJX 160755Z AUTO 19011KT 10SM CLR 00/M05 A2994 RMK AO2 T00031047
KIJX 160735Z AUTO 19012KT 10SM CLR 00/M05 A2994 RMK AO2 T00031047
KIJX 160715Z AUTO 19011KT 10SM CLR 00/M05 A2995 RMK AO2 T00021047
KIJX 160655Z AUTO 19009KT 10SM CLR 00/M05 A2996 RMK AO2 T00001048
KIJX 160635Z AUTO 18007KT 10SM CLR 00/M05 A2997 RMK AO2 T10051051
KIJX 160615Z AUTO 19007KT 10SM CLR 00/M05 A2997 RMK AO2 T10011051
KIJX 160555Z AUTO 18006KT 10SM CLR 00/M05 A2998 RMK AO2 T00001051 10017 20000 400511038
KIJX 160535Z AUTO 19008KT 10SM CLR 00/M05 A2998 RMK AO2 T00031051
KIJX 160515Z AUTO 19007KT 10SM CLR 00/M05 A2999 RMK AO2 T00041052
KIJX 160455Z AUTO 19008KT 10SM CLR 01/M05 A2999 RMK AO2 T00051055
KIJX 160435Z AUTO 19007KT 10SM CLR 00/M06 A2999 RMK AO2 T00041058
KIJX 160415Z AUTO 19008KT 10SM CLR 01/M06 A2999 RMK AO2 T00061060
KIJX 160355Z AUTO 19009KT 10SM CLR 01/M06 A2999 RMK AO2 T00081060
KIJX 160335Z AUTO 20009KT 10SM CLR 01/M06 A2999 RMK AO2 T00081062
KIJX 160315Z AUTO 19008KT 10SM CLR 01/M07 A3000 RMK AO2 T00061066
KIJX 160255Z AUTO 20008KT 10SM CLR 01/M07 A3000 RMK AO2 T00081070
KIJX 160235Z AUTO 20008KT 10SM CLR 01/M07 A3001 RMK AO2 T00081073
KIJX 160215Z AUTO 20008KT 10SM CLR 01/M07 A3001 RMK AO2 T00101074